sensor_id;sensor_type;location;lat;lon;timestamp;temperature;humidity
73939;DHT22;62291;47.554;8.504;2024-02-16T00:00:17;7.90;99.90
73939;DHT22;62291;47.554;8.504;2024-02-16T00:02:43;7.90;99.90
73939;DHT22;62291;47.554;8.504;2024-02-16T00:05:10;7.90;99.90
73939;DHT22;62291;47.554;8.504;2024-02-16T00:07:39;7.90;99.90
73939;DHT22;62291;47.554;8.504;2024-02-16T00:10:06;7.90;99.90
73939;DHT22;62291;47.554;8.504;2024-02-16T00:12:33;7.90;99.90
73939;DHT22;62291;47.554;8.504;2024-02-16T00:14:59;7.90;99.90
73939;DHT22;62291;47.554;8.504;2024-02-16T00:17:25;7.80;99.90
73939;DHT22;62291;47.554;8.504;2024-02-16T00:19:57;7.80;99.90
73939;DHT22;62291;47.554;8.504;2024-02-16T00:22:23;7.80;99.90
73939;DHT22;62291;47.554;8.504;2024-02-16T00:24:48;7.80;99.90
73939;DHT22;62291;47.554;8.504;2024-02-16T00:27:15;7.80;99.90
73939;DHT22;62291;47.554;8.504;2024-02-16T00:29:41;7.80;99.90
73939;DHT22;62291;47.554;8.504;2024-02-16T00:32:07;7.80;99.90
73939;DHT22;62291;47.554;8.504;2024-02-16T00:34:35;7.70;99.90
73939;DHT22;62291;47.554;8.504;2024-02-16T00:37:01;7.80;99.90
73939;DHT22;62291;47.554;8.504;2024-02-16T00:39:26;7.80;99.90
73939;DHT22;62291;47.554;8.504;2024-02-16T00:41:52;7.80;99.90
73939;DHT22;62291;47.554;8.504;2024-02-16T00:44:18;7.80;99.90
73939;DHT22;62291;47.554;8.504;2024-02-16T00:46:44;7.80;99.90
73939;DHT22;62291;47.554;8.504;2024-02-16T00:49:10;7.90;99.90
73939;DHT22;62291;47.554;8.504;2024-02-16T00:51:36;7.90;99.90
73939;DHT22;62291;47.554;8.504;2024-02-16T00:54:02;7.90;99.90
73939;DHT22;62291;47.554;8.504;2024-02-16T00:56:29;7.90;99.90
73939;DHT22;62291;47.554;8.504;2024-02-16T00:58:55;7.90;99.90
73939;DHT22;62291;47.554;8.504;2024-02-16T01:01:21;7.90;99.90
73939;DHT22;62291;47.554;8.504;2024-02-16T01:03:48;7.90;99.90
73939;DHT22;62291;47.554;8.504;2024-02-16T01:06:14;7.90;99.90
73939;DHT22;62291;47.554;8.504;2024-02-16T01:08:40;7.90;99.90
73939;DHT22;62291;47.554;8.504;2024-02-16T01:11:06;7.90;99.90
73939;DHT22;62291;47.554;8.504;2024-02-16T01:13:33;7.90;99.90
73939;DHT22;62291;47.554;8.504;2024-02-16T01:15:59;7.80;99.90
73939;DHT22;62291;47.554;8.504;2024-02-16T01:18:25;7.80;99.90
73939;DHT22;62291;47.554;8.504;2024-02-16T01:20:51;7.70;99.90
73939;DHT22;62291;47.554;8.504;2024-02-16T01:23:17;7.60;99.90
73939;DHT22;62291;47.554;8.504;2024-02-16T01:25:43;7.60;99.90
73939;DHT22;62291;47.554;8.504;2024-02-16T01:28:08;7.50;99.90
73939;DHT22;62291;47.554;8.504;2024-02-16T01:30:34;7.40;99.90
73939;DHT22;62291;47.554;8.504;2024-02-16T01:33:00;7.20;99.90
73939;DHT22;62291;47.554;8.504;2024-02-16T01:35:25;7.20;99.90
73939;DHT22;62291;47.554;8.504;2024-02-16T01:37:51;6.90;99.90
73939;DHT22;62291;47.554;8.504;2024-02-16T01:40:17;6.80;99.90
73939;DHT22;62291;47.554;8.504;2024-02-16T01:42:43;6.80;99.90
73939;DHT22;62291;47.554;8.504;2024-02-16T01:45:10;6.70;99.90
73939;DHT22;62291;47.554;8.504;2024-02-16T01:47:41;6.70;99.90
73939;DHT22;62291;47.554;8.504;2024-02-16T01:50:09;6.70;99.90
73939;DHT22;62291;47.554;8.504;2024-02-16T01:52:36;6.70;99.90
73939;DHT22;62291;47.554;8.504;2024-02-16T01:55:04;6.70;99.90
73939;DHT22;62291;47.554;8.504;2024-02-16T01:57:30;6.70;99.90
73939;DHT22;62291;47.554;8.504;2024-02-16T01:59:57;6.60;99.90
73939;DHT22;62291;47.554;8.504;2024-02-16T02:02:23;6.60;99.90
73939;DHT22;62291;47.554;8.504;2024-02-16T02:04:49;6.60;99.90
73939;DHT22;62291;47.554;8.504;2024-02-16T02:07:15;6.60;99.90
73939;DHT22;62291;47.554;8.504;2024-02-16T02:09:41;6.60;99.90
73939;DHT22;62291;47.554;8.504;2024-02-16T02:12:08;6.50;99.90
73939;DHT22;62291;47.554;8.504;2024-02-16T02:14:35;6.40;99.90
73939;DHT22;62291;47.554;8.504;2024-02-16T02:17:01;6.30;99.90
73939;DHT22;62291;47.554;8.504;2024-02-16T02:19:26;6.20;99.90
73939;DHT22;62291;47.554;8.504;2024-02-16T02:21:52;6.10;99.90
73939;DHT22;62291;47.554;8.504;2024-02-16T02:24:18;6.10;99.90
73939;DHT22;62291;47.554;8.504;2024-02-16T02:26:44;5.90;99.90
73939;DHT22;62291;47.554;8.504;2024-02-16T02:29:09;5.90;99.90
73939;DHT22;62291;47.554;8.504;2024-02-16T02:31:35;6.00;99.90
73939;DHT22;62291;47.554;8.504;2024-02-16T02:34:01;6.00;99.90
73939;DHT22;62291;47.554;8.504;2024-02-16T02:36:26;6.00;99.90
73939;DHT22;62291;47.554;8.504;2024-02-16T02:38:52;5.90;99.90
73939;DHT22;62291;47.554;8.504;2024-02-16T02:41:18;6.00;99.90
73939;DHT22;62291;47.554;8.504;2024-02-16T02:43:45;5.90;99.90
73939;DHT22;62291;47.554;8.504;2024-02-16T02:46:15;6.00;99.90
73939;DHT22;62291;47.554;8.504;2024-02-16T02:48:45;6.00;99.90
73939;DHT22;62291;47.554;8.504;2024-02-16T02:51:11;6.00;99.90
73939;DHT22;62291;47.554;8.504;2024-02-16T02:53:37;6.00;99.90
73939;DHT22;62291;47.554;8.504;2024-02-16T02:56:03;6.10;99.90
73939;DHT22;62291;47.554;8.504;2024-02-16T02:58:29;6.10;99.90
73939;DHT22;62291;47.554;8.504;2024-02-16T03:00:55;6.10;99.90
73939;DHT22;62291;47.554;8.504;2024-02-16T03:03:21;6.20;99.90
73939;DHT22;62291;47.554;8.504;2024-02-16T03:05:47;6.20;99.90
73939;DHT22;62291;47.554;8.504;2024-02-16T03:08:12;6.30;99.90
73939;DHT22;62291;47.554;8.504;2024-02-16T03:10:38;6.20;99.90
73939;DHT22;62291;47.554;8.504;2024-02-16T03:13:04;6.30;99.90
73939;DHT22;62291;47.554;8.504;2024-02-16T03:15:32;6.30;99.90
73939;DHT22;62291;47.554;8.504;2024-02-16T03:17:59;6.30;99.90
73939;DHT22;62291;47.554;8.504;2024-02-16T03:20:24;6.40;99.90
73939;DHT22;62291;47.554;8.504;2024-02-16T03:22:50;6.40;99.90
73939;DHT22;62291;47.554;8.504;2024-02-16T03:25:16;6.30;99.90
73939;DHT22;62291;47.554;8.504;2024-02-16T03:27:43;6.30;99.90
73939;DHT22;62291;47.554;8.504;2024-02-16T03:30:09;6.30;99.90
73939;DHT22;62291;47.554;8.504;2024-02-16T03:32:35;6.30;99.90
73939;DHT22;62291;47.554;8.504;2024-02-16T03:35:01;6.30;99.90
73939;DHT22;62291;47.554;8.504;2024-02-16T03:37:27;6.30;99.90
73939;DHT22;62291;47.554;8.504;2024-02-16T03:39:53;6.30;99.90
73939;DHT22;62291;47.554;8.504;2024-02-16T03:42:19;6.30;99.90
73939;DHT22;62291;47.554;8.504;2024-02-16T03:44:45;6.20;99.90
73939;DHT22;62291;47.554;8.504;2024-02-16T03:47:10;6.20;99.90
73939;DHT22;62291;47.554;8.504;2024-02-16T03:49:37;6.20;99.90
73939;DHT22;62291;47.554;8.504;2024-02-16T03:52:03;6.20;99.90
73939;DHT22;62291;47.554;8.504;2024-02-16T03:54:28;6.20;99.90
73939;DHT22;62291;47.554;8.504;2024-02-16T03:56:55;6.20;99.90
73939;DHT22;62291;47.554;8.504;2024-02-16T03:59:21;6.10;99.90
73939;DHT22;62291;47.554;8.504;2024-02-16T04:01:46;6.10;99.90
73939;DHT22;62291;47.554;8.504;2024-02-16T04:04:12;6.10;99.90
73939;DHT22;62291;47.554;8.504;2024-02-16T04:06:38;6.00;99.90
73939;DHT22;62291;47.554;8.504;2024-02-16T04:09:05;5.90;99.90
73939;DHT22;62291;47.554;8.504;2024-02-16T04:11:34;5.90;99.90
73939;DHT22;62291;47.554;8.504;2024-02-16T04:14:00;5.80;99.90
73939;DHT22;62291;47.554;8.504;2024-02-16T04:16:27;5.80;99.90
73939;DHT22;62291;47.554;8.504;2024-02-16T04:18:52;5.80;99.90
73939;DHT22;62291;47.554;8.504;2024-02-16T04:21:18;5.90;99.90
73939;DHT22;62291;47.554;8.504;2024-02-16T04:23:44;5.90;99.90
73939;DHT22;62291;47.554;8.504;2024-02-16T04:26:10;5.90;99.90
73939;DHT22;62291;47.554;8.504;2024-02-16T04:28:36;5.90;99.90
73939;DHT22;62291;47.554;8.504;2024-02-16T04:31:02;5.90;99.90
73939;DHT22;62291;47.554;8.504;2024-02-16T04:33:28;6.00;99.90
73939;DHT22;62291;47.554;8.504;2024-02-16T04:35:53;6.00;99.90
73939;DHT22;62291;47.554;8.504;2024-02-16T04:38:19;6.00;99.90
73939;DHT22;62291;47.554;8.504;2024-02-16T04:40:45;5.90;99.90
73939;DHT22;62291;47.554;8.504;2024-02-16T04:43:11;5.90;99.90
73939;DHT22;62291;47.554;8.504;2024-02-16T04:45:36;5.90;99.90
73939;DHT22;62291;47.554;8.504;2024-02-16T04:48:06;5.80;99.90
73939;DHT22;62291;47.554;8.504;2024-02-16T04:50:32;5.80;99.90
73939;DHT22;62291;47.554;8.504;2024-02-16T04:52:58;5.80;99.90
73939;DHT22;62291;47.554;8.504;2024-02-16T04:55:24;5.80;99.90
73939;DHT22;62291;47.554;8.504;2024-02-16T04:57:50;5.90;99.90
73939;DHT22;62291;47.554;8.504;2024-02-16T05:00:16;5.90;99.90
73939;DHT22;62291;47.554;8.504;2024-02-16T05:02:42;5.90;99.90
73939;DHT22;62291;47.554;8.504;2024-02-16T05:05:08;5.90;99.90
73939;DHT22;62291;47.554;8.504;2024-02-16T05:07:34;5.90;99.90
73939;DHT22;62291;47.554;8.504;2024-02-16T05:10:01;5.90;99.90
73939;DHT22;62291;47.554;8.504;2024-02-16T05:12:27;5.90;99.90
73939;DHT22;62291;47.554;8.504;2024-02-16T05:14:53;6.00;99.90
73939;DHT22;62291;47.554;8.504;2024-02-16T05:17:19;5.70;99.90
73939;DHT22;62291;47.554;8.504;2024-02-16T05:19:48;5.70;99.90
73939;DHT22;62291;47.554;8.504;2024-02-16T05:22:14;5.70;99.90
73939;DHT22;62291;47.554;8.504;2024-02-16T05:24:40;5.70;99.90
73939;DHT22;62291;47.554;8.504;2024-02-16T05:27:06;5.70;99.90
73939;DHT22;62291;47.554;8.504;2024-02-16T05:29:32;5.60;99.90
73939;DHT22;62291;47.554;8.504;2024-02-16T05:31:57;5.60;99.90
73939;DHT22;62291;47.554;8.504;2024-02-16T05:34:23;5.60;99.90
73939;DHT22;62291;47.554;8.504;2024-02-16T05:36:50;5.50;99.90
73939;DHT22;62291;47.554;8.504;2024-02-16T05:39:15;5.30;99.90
73939;DHT22;62291;47.554;8.504;2024-02-16T05:41:52;5.30;99.90
73939;DHT22;62291;47.554;8.504;2024-02-16T05:44:19;5.30;99.90
73939;DHT22;62291;47.554;8.504;2024-02-16T05:46:45;5.30;99.90
73939;DHT22;62291;47.554;8.504;2024-02-16T05:49:11;5.30;99.90
73939;DHT22;62291;47.554;8.504;2024-02-16T05:51:37;5.30;99.90
73939;DHT22;62291;47.554;8.504;2024-02-16T05:54:06;5.30;99.90
73939;DHT22;62291;47.554;8.504;2024-02-16T05:56:34;5.30;99.90
73939;DHT22;62291;47.554;8.504;2024-02-16T05:59:03;5.30;99.90
73939;DHT22;62291;47.554;8.504;2024-02-16T06:01:31;5.30;99.90
73939;DHT22;62291;47.554;8.504;2024-02-16T06:03:57;5.20;99.90
73939;DHT22;62291;47.554;8.504;2024-02-16T06:06:23;5.20;99.90
73939;DHT22;62291;47.554;8.504;2024-02-16T06:08:48;5.20;99.90
73939;DHT22;62291;47.554;8.504;2024-02-16T06:11:14;5.20;99.90
73939;DHT22;62291;47.554;8.504;2024-02-16T06:13:41;5.30;99.90
73939;DHT22;62291;47.554;8.504;2024-02-16T06:16:07;5.20;99.90
73939;DHT22;62291;47.554;8.504;2024-02-16T06:18:36;5.20;99.90
73939;DHT22;62291;47.554;8.504;2024-02-16T06:21:02;5.20;99.90
73939;DHT22;62291;47.554;8.504;2024-02-16T06:23:28;5.20;99.90
73939;DHT22;62291;47.554;8.504;2024-02-16T06:25:53;5.20;99.90
73939;DHT22;62291;47.554;8.504;2024-02-16T06:28:19;5.30;99.90
73939;DHT22;62291;47.554;8.504;2024-02-16T06:30:44;5.30;99.90
73939;DHT22;62291;47.554;8.504;2024-02-16T06:33:10;5.30;99.90
73939;DHT22;62291;47.554;8.504;2024-02-16T06:35:36;5.30;99.90
73939;DHT22;62291;47.554;8.504;2024-02-16T06:38:02;5.30;99.90
73939;DHT22;62291;47.554;8.504;2024-02-16T06:40:27;5.40;99.90
73939;DHT22;62291;47.554;8.504;2024-02-16T06:42:53;5.40;99.90
73939;DHT22;62291;47.554;8.504;2024-02-16T06:45:20;5.50;99.90
73939;DHT22;62291;47.554;8.504;2024-02-16T06:47:45;5.40;99.90
73939;DHT22;62291;47.554;8.504;2024-02-16T06:50:11;5.50;99.90
73939;DHT22;62291;47.554;8.504;2024-02-16T06:52:37;5.60;99.90
73939;DHT22;62291;47.554;8.504;2024-02-16T06:55:02;5.70;99.90
73939;DHT22;62291;47.554;8.504;2024-02-16T06:57:28;5.80;99.90
73939;DHT22;62291;47.554;8.504;2024-02-16T06:59:54;5.80;99.90
73939;DHT22;62291;47.554;8.504;2024-02-16T07:02:22;5.90;99.90
73939;DHT22;62291;47.554;8.504;2024-02-16T07:04:48;5.90;99.90
73939;DHT22;62291;47.554;8.504;2024-02-16T07:07:14;6.10;99.90
73939;DHT22;62291;47.554;8.504;2024-02-16T07:09:39;6.30;99.90
73939;DHT22;62291;47.554;8.504;2024-02-16T07:12:06;6.60;99.90
73939;DHT22;62291;47.554;8.504;2024-02-16T07:14:32;6.80;99.90
73939;DHT22;62291;47.554;8.504;2024-02-16T07:16:58;6.90;99.90
73939;DHT22;62291;47.554;8.504;2024-02-16T07:19:23;7.00;99.90
73939;DHT22;62291;47.554;8.504;2024-02-16T07:21:50;7.10;99.90
73939;DHT22;62291;47.554;8.504;2024-02-16T07:24:16;7.20;99.90
73939;DHT22;62291;47.554;8.504;2024-02-16T07:26:42;7.40;99.90
73939;DHT22;62291;47.554;8.504;2024-02-16T07:29:08;7.80;99.90
73939;DHT22;62291;47.554;8.504;2024-02-16T07:31:34;8.30;99.90
73939;DHT22;62291;47.554;8.504;2024-02-16T07:34:00;8.90;99.90
73939;DHT22;62291;47.554;8.504;2024-02-16T07:36:26;9.20;99.90
73939;DHT22;62291;47.554;8.504;2024-02-16T07:38:52;9.50;99.90
73939;DHT22;62291;47.554;8.504;2024-02-16T07:41:18;9.40;99.90
73939;DHT22;62291;47.554;8.504;2024-02-16T07:43:43;9.40;99.90
73939;DHT22;62291;47.554;8.504;2024-02-16T07:46:09;9.50;99.90
73939;DHT22;62291;47.554;8.504;2024-02-16T07:48:35;9.50;99.90
73939;DHT22;62291;47.554;8.504;2024-02-16T07:51:00;9.40;99.90
73939;DHT22;62291;47.554;8.504;2024-02-16T07:53:28;9.60;99.90
73939;DHT22;62291;47.554;8.504;2024-02-16T07:55:54;9.80;99.90
73939;DHT22;62291;47.554;8.504;2024-02-16T07:58:20;9.90;99.90
73939;DHT22;62291;47.554;8.504;2024-02-16T08:00:46;10.00;99.90
73939;DHT22;62291;47.554;8.504;2024-02-16T08:03:11;10.10;99.90
73939;DHT22;62291;47.554;8.504;2024-02-16T08:05:37;10.20;99.90
73939;DHT22;62291;47.554;8.504;2024-02-16T08:08:03;10.20;99.90
73939;DHT22;62291;47.554;8.504;2024-02-16T08:10:29;10.00;99.90
73939;DHT22;62291;47.554;8.504;2024-02-16T08:12:55;10.00;99.90
73939;DHT22;62291;47.554;8.504;2024-02-16T08:15:20;10.10;99.90
73939;DHT22;62291;47.554;8.504;2024-02-16T08:17:49;10.20;99.90
73939;DHT22;62291;47.554;8.504;2024-02-16T08:20:18;10.30;99.90
73939;DHT22;62291;47.554;8.504;2024-02-16T08:22:44;10.30;99.90
73939;DHT22;62291;47.554;8.504;2024-02-16T08:25:09;10.20;99.90
73939;DHT22;62291;47.554;8.504;2024-02-16T08:27:36;10.20;99.90
73939;DHT22;62291;47.554;8.504;2024-02-16T08:30:04;10.20;99.90
73939;DHT22;62291;47.554;8.504;2024-02-16T08:32:29;10.00;99.90
73939;DHT22;62291;47.554;8.504;2024-02-16T08:34:55;10.10;99.90
73939;DHT22;62291;47.554;8.504;2024-02-16T08:37:21;10.10;99.90
73939;DHT22;62291;47.554;8.504;2024-02-16T08:39:47;10.00;99.90
73939;DHT22;62291;47.554;8.504;2024-02-16T08:42:13;10.00;99.90
73939;DHT22;62291;47.554;8.504;2024-02-16T08:44:39;10.00;99.90
73939;DHT22;62291;47.554;8.504;2024-02-16T08:47:06;10.00;99.90
73939;DHT22;62291;47.554;8.504;2024-02-16T08:49:33;10.00;99.90
73939;DHT22;62291;47.554;8.504;2024-02-16T08:51:58;10.10;99.90
73939;DHT22;62291;47.554;8.504;2024-02-16T08:54:24;10.00;99.90
73939;DHT22;62291;47.554;8.504;2024-02-16T08:56:52;9.90;99.90
73939;DHT22;62291;47.554;8.504;2024-02-16T08:59:18;9.90;99.90
73939;DHT22;62291;47.554;8.504;2024-02-16T09:01:44;9.90;99.90
73939;DHT22;62291;47.554;8.504;2024-02-16T09:04:10;10.00;99.90
73939;DHT22;62291;47.554;8.504;2024-02-16T09:06:35;10.00;99.90
73939;DHT22;62291;47.554;8.504;2024-02-16T09:09:01;10.00;99.90
73939;DHT22;62291;47.554;8.504;2024-02-16T09:11:27;10.10;99.90
73939;DHT22;62291;47.554;8.504;2024-02-16T09:13:56;10.20;99.90
73939;DHT22;62291;47.554;8.504;2024-02-16T09:16:21;10.20;99.90
73939;DHT22;62291;47.554;8.504;2024-02-16T09:18:47;10.20;99.90
73939;DHT22;62291;47.554;8.504;2024-02-16T09:21:16;10.30;99.90
73939;DHT22;62291;47.554;8.504;2024-02-16T09:23:41;10.40;99.90
73939;DHT22;62291;47.554;8.504;2024-02-16T09:26:07;10.50;99.90
73939;DHT22;62291;47.554;8.504;2024-02-16T09:28:42;10.60;99.90
73939;DHT22;62291;47.554;8.504;2024-02-16T09:31:08;10.90;99.90
73939;DHT22;62291;47.554;8.504;2024-02-16T09:33:34;10.90;99.90
73939;DHT22;62291;47.554;8.504;2024-02-16T09:36:00;11.20;99.90
73939;DHT22;62291;47.554;8.504;2024-02-16T09:38:26;11.80;99.90
73939;DHT22;62291;47.554;8.504;2024-02-16T09:40:52;12.20;99.90
73939;DHT22;62291;47.554;8.504;2024-02-16T09:43:28;12.80;99.90
73939;DHT22;62291;47.554;8.504;2024-02-16T09:45:58;13.20;99.90
73939;DHT22;62291;47.554;8.504;2024-02-16T09:48:26;13.50;99.90
73939;DHT22;62291;47.554;8.504;2024-02-16T09:50:56;13.60;99.90
73939;DHT22;62291;47.554;8.504;2024-02-16T09:53:25;13.60;99.90
73939;DHT22;62291;47.554;8.504;2024-02-16T09:55:51;13.90;99.90
73939;DHT22;62291;47.554;8.504;2024-02-16T09:58:18;14.70;99.90
73939;DHT22;62291;47.554;8.504;2024-02-16T10:00:51;15.10;99.90
73939;DHT22;62291;47.554;8.504;2024-02-16T10:03:30;14.90;99.90
73939;DHT22;62291;47.554;8.504;2024-02-16T10:06:05;15.10;99.90
73939;DHT22;62291;47.554;8.504;2024-02-16T10:08:32;15.10;99.90
73939;DHT22;62291;47.554;8.504;2024-02-16T10:11:04;14.90;99.90
73939;DHT22;62291;47.554;8.504;2024-02-16T10:13:33;14.90;99.90
73939;DHT22;62291;47.554;8.504;2024-02-16T10:16:11;15.10;99.90
73939;DHT22;62291;47.554;8.504;2024-02-16T10:18:38;15.30;99.90
73939;DHT22;62291;47.554;8.504;2024-02-16T10:21:04;15.40;99.90
73939;DHT22;62291;47.554;8.504;2024-02-16T10:23:30;15.20;99.90
73939;DHT22;62291;47.554;8.504;2024-02-16T10:25:57;15.30;99.90
73939;DHT22;62291;47.554;8.504;2024-02-16T10:28:24;15.50;99.90
73939;DHT22;62291;47.554;8.504;2024-02-16T10:30:58;16.00;99.90
73939;DHT22;62291;47.554;8.504;2024-02-16T10:33:27;16.20;99.90
73939;DHT22;62291;47.554;8.504;2024-02-16T10:35:55;16.60;99.90
73939;DHT22;62291;47.554;8.504;2024-02-16T10:38:22;17.00;99.90
73939;DHT22;62291;47.554;8.504;2024-02-16T10:40:51;17.10;99.90
73939;DHT22;62291;47.554;8.504;2024-02-16T10:43:18;16.90;99.90
73939;DHT22;62291;47.554;8.504;2024-02-16T10:45:43;16.40;99.90
73939;DHT22;62291;47.554;8.504;2024-02-16T10:48:12;16.20;99.90
73939;DHT22;62291;47.554;8.504;2024-02-16T10:50:41;16.30;99.90
73939;DHT22;62291;47.554;8.504;2024-02-16T10:53:33;16.20;99.90
73939;DHT22;62291;47.554;8.504;2024-02-16T10:56:00;16.20;99.90
73939;DHT22;62291;47.554;8.504;2024-02-16T10:58:27;16.30;99.90
73939;DHT22;62291;47.554;8.504;2024-02-16T11:00:55;16.20;99.90
73939;DHT22;62291;47.554;8.504;2024-02-16T11:03:23;16.20;99.90
73939;DHT22;62291;47.554;8.504;2024-02-16T11:05:49;16.60;99.90
73939;DHT22;62291;47.554;8.504;2024-02-16T11:08:17;16.70;99.90
73939;DHT22;62291;47.554;8.504;2024-02-16T11:10:59;16.50;99.90
73939;DHT22;62291;47.554;8.504;2024-02-16T11:13:27;16.20;99.90
73939;DHT22;62291;47.554;8.504;2024-02-16T11:16:00;16.10;99.90
73939;DHT22;62291;47.554;8.504;2024-02-16T11:18:31;16.00;99.90
73939;DHT22;62291;47.554;8.504;2024-02-16T11:21:01;16.30;99.90
73939;DHT22;62291;47.554;8.504;2024-02-16T11:23:28;16.60;99.90
73939;DHT22;62291;47.554;8.504;2024-02-16T11:26:10;16.90;99.90
73939;DHT22;62291;47.554;8.504;2024-02-16T11:28:41;17.20;99.90
73939;DHT22;62291;47.554;8.504;2024-02-16T11:31:07;17.30;99.90
73939;DHT22;62291;47.554;8.504;2024-02-16T11:33:33;17.40;99.90
73939;DHT22;62291;47.554;8.504;2024-02-16T11:36:03;17.40;99.90
73939;DHT22;62291;47.554;8.504;2024-02-16T11:38:34;17.60;99.90
73939;DHT22;62291;47.554;8.504;2024-02-16T11:41:03;17.70;99.90
73939;DHT22;62291;47.554;8.504;2024-02-16T11:43:29;17.60;99.90
73939;DHT22;62291;47.554;8.504;2024-02-16T11:45:55;18.00;99.90
73939;DHT22;62291;47.554;8.504;2024-02-16T11:48:22;18.30;99.90
73939;DHT22;62291;47.554;8.504;2024-02-16T11:51:02;18.50;99.90
73939;DHT22;62291;47.554;8.504;2024-02-16T11:53:32;18.40;99.90
73939;DHT22;62291;47.554;8.504;2024-02-16T11:55:58;18.30;99.90
73939;DHT22;62291;47.554;8.504;2024-02-16T11:58:23;18.20;99.90
73939;DHT22;62291;47.554;8.504;2024-02-16T12:00:50;17.90;99.90
73939;DHT22;62291;47.554;8.504;2024-02-16T12:03:24;17.70;99.90
73939;DHT22;62291;47.554;8.504;2024-02-16T12:05:58;17.50;99.90
73939;DHT22;62291;47.554;8.504;2024-02-16T12:08:31;17.20;99.90
73939;DHT22;62291;47.554;8.504;2024-02-16T12:10:57;17.20;99.90
73939;DHT22;62291;47.554;8.504;2024-02-16T12:13:22;17.10;99.90
73939;DHT22;62291;47.554;8.504;2024-02-16T12:15:50;17.00;99.90
73939;DHT22;62291;47.554;8.504;2024-02-16T12:18:20;16.80;99.90
73939;DHT22;62291;47.554;8.504;2024-02-16T12:20:59;16.70;99.90
73939;DHT22;62291;47.554;8.504;2024-02-16T12:23:25;16.60;99.90
73939;DHT22;62291;47.554;8.504;2024-02-16T12:25:51;16.70;99.90
73939;DHT22;62291;47.554;8.504;2024-02-16T12:28:18;16.70;99.90
73939;DHT22;62291;47.554;8.504;2024-02-16T12:30:46;16.50;99.90
73939;DHT22;62291;47.554;8.504;2024-02-16T12:33:11;16.50;99.90
73939;DHT22;62291;47.554;8.504;2024-02-16T12:35:37;16.40;99.90
73939;DHT22;62291;47.554;8.504;2024-02-16T12:38:03;16.40;99.90
73939;DHT22;62291;47.554;8.504;2024-02-16T12:40:28;16.30;99.90
73939;DHT22;62291;47.554;8.504;2024-02-16T12:42:54;16.20;99.90
73939;DHT22;62291;47.554;8.504;2024-02-16T12:45:20;16.10;99.90
73939;DHT22;62291;47.554;8.504;2024-02-16T12:47:46;16.20;99.90
73939;DHT22;62291;47.554;8.504;2024-02-16T12:50:12;16.20;99.90
73939;DHT22;62291;47.554;8.504;2024-02-16T12:52:38;16.30;99.90
73939;DHT22;62291;47.554;8.504;2024-02-16T12:55:06;16.30;99.90
73939;DHT22;62291;47.554;8.504;2024-02-16T12:57:31;16.30;99.90
73939;DHT22;62291;47.554;8.504;2024-02-16T12:59:57;16.20;99.90
73939;DHT22;62291;47.554;8.504;2024-02-16T13:02:23;16.20;99.90
73939;DHT22;62291;47.554;8.504;2024-02-16T13:04:49;16.30;99.90
73939;DHT22;62291;47.554;8.504;2024-02-16T13:07:16;16.30;99.90
73939;DHT22;62291;47.554;8.504;2024-02-16T13:09:41;16.40;99.90
73939;DHT22;62291;47.554;8.504;2024-02-16T13:12:07;16.40;99.90
73939;DHT22;62291;47.554;8.504;2024-02-16T13:14:33;16.50;99.90
73939;DHT22;62291;47.554;8.504;2024-02-16T13:16:59;16.40;99.90
73939;DHT22;62291;47.554;8.504;2024-02-16T13:19:24;16.20;99.90
73939;DHT22;62291;47.554;8.504;2024-02-16T13:21:50;16.10;99.90
73939;DHT22;62291;47.554;8.504;2024-02-16T13:24:16;16.00;99.90
73939;DHT22;62291;47.554;8.504;2024-02-16T13:26:41;15.90;99.90
73939;DHT22;62291;47.554;8.504;2024-02-16T13:29:07;15.70;99.90
73939;DHT22;62291;47.554;8.504;2024-02-16T13:31:33;15.70;99.90
73939;DHT22;62291;47.554;8.504;2024-02-16T13:33:59;15.60;99.90
73939;DHT22;62291;47.554;8.504;2024-02-16T13:36:24;15.60;99.90
73939;DHT22;62291;47.554;8.504;2024-02-16T13:38:50;15.60;99.90
73939;DHT22;62291;47.554;8.504;2024-02-16T13:41:16;15.60;99.90
73939;DHT22;62291;47.554;8.504;2024-02-16T13:43:42;15.70;99.90
73939;DHT22;62291;47.554;8.504;2024-02-16T13:46:07;15.70;99.90
73939;DHT22;62291;47.554;8.504;2024-02-16T13:48:33;15.60;99.90
73939;DHT22;62291;47.554;8.504;2024-02-16T13:51:02;15.60;99.90
73939;DHT22;62291;47.554;8.504;2024-02-16T13:53:28;15.40;99.90
73939;DHT22;62291;47.554;8.504;2024-02-16T13:55:54;15.40;99.90
73939;DHT22;62291;47.554;8.504;2024-02-16T13:58:21;15.50;99.90
73939;DHT22;62291;47.554;8.504;2024-02-16T14:00:46;15.50;99.90
73939;DHT22;62291;47.554;8.504;2024-02-16T14:03:14;15.50;99.90
73939;DHT22;62291;47.554;8.504;2024-02-16T14:05:41;15.40;99.90
73939;DHT22;62291;47.554;8.504;2024-02-16T14:08:07;15.40;99.90
73939;DHT22;62291;47.554;8.504;2024-02-16T14:10:35;15.40;99.90
73939;DHT22;62291;47.554;8.504;2024-02-16T14:13:00;15.30;99.90
73939;DHT22;62291;47.554;8.504;2024-02-16T14:15:26;15.40;99.90
73939;DHT22;62291;47.554;8.504;2024-02-16T14:17:52;15.30;99.90
73939;DHT22;62291;47.554;8.504;2024-02-16T14:20:18;15.30;99.90
73939;DHT22;62291;47.554;8.504;2024-02-16T14:22:43;15.20;99.90
73939;DHT22;62291;47.554;8.504;2024-02-16T14:25:10;15.30;99.90
73939;DHT22;62291;47.554;8.504;2024-02-16T14:27:36;15.30;99.90
73939;DHT22;62291;47.554;8.504;2024-02-16T14:30:04;15.30;99.90
73939;DHT22;62291;47.554;8.504;2024-02-16T14:32:30;15.30;99.90
73939;DHT22;62291;47.554;8.504;2024-02-16T14:34:55;15.20;99.90
73939;DHT22;62291;47.554;8.504;2024-02-16T14:37:21;15.20;99.90
73939;DHT22;62291;47.554;8.504;2024-02-16T14:39:47;15.20;99.90
73939;DHT22;62291;47.554;8.504;2024-02-16T14:42:13;15.20;99.90
73939;DHT22;62291;47.554;8.504;2024-02-16T14:44:39;15.20;99.90
73939;DHT22;62291;47.554;8.504;2024-02-16T14:47:05;15.10;99.90
73939;DHT22;62291;47.554;8.504;2024-02-16T14:49:30;15.10;99.90
73939;DHT22;62291;47.554;8.504;2024-02-16T14:51:57;15.00;99.90
73939;DHT22;62291;47.554;8.504;2024-02-16T14:54:23;15.00;99.90
73939;DHT22;62291;47.554;8.504;2024-02-16T14:56:52;15.00;99.90
73939;DHT22;62291;47.554;8.504;2024-02-16T14:59:20;15.00;99.90
73939;DHT22;62291;47.554;8.504;2024-02-16T15:01:46;14.90;99.90
73939;DHT22;62291;47.554;8.504;2024-02-16T15:04:12;14.90;99.90
73939;DHT22;62291;47.554;8.504;2024-02-16T15:06:37;14.90;99.90
73939;DHT22;62291;47.554;8.504;2024-02-16T15:09:03;14.90;99.90
73939;DHT22;62291;47.554;8.504;2024-02-16T15:11:29;14.80;99.90
73939;DHT22;62291;47.554;8.504;2024-02-16T15:13:55;14.80;99.90
73939;DHT22;62291;47.554;8.504;2024-02-16T15:16:21;14.80;99.90
73939;DHT22;62291;47.554;8.504;2024-02-16T15:18:47;14.70;99.90
73939;DHT22;62291;47.554;8.504;2024-02-16T15:21:12;14.80;99.90
73939;DHT22;62291;47.554;8.504;2024-02-16T15:23:38;14.80;99.90
73939;DHT22;62291;47.554;8.504;2024-02-16T15:26:04;14.80;99.90
73939;DHT22;62291;47.554;8.504;2024-02-16T15:28:31;14.70;99.90
73939;DHT22;62291;47.554;8.504;2024-02-16T15:30:57;14.60;99.90
73939;DHT22;62291;47.554;8.504;2024-02-16T15:33:23;14.60;99.90
73939;DHT22;62291;47.554;8.504;2024-02-16T15:35:49;14.60;99.90